Time;durP1;ratioP1;P1;durP2;ratioP2;P2;SDS_P1;SDS_P2;PMS_P1;PMS_P2;Temp;Humidity;BMP_temperature;BMP_pressure;BME280_temperature;BME280_humidity;BME280_pressure;Samples;Min_cycle;Max_cycle;Signal;HPM_P1;HPM_P2
2021/01/19 00:01:38;;;;;;;38.78;14.27;;;7.30;99.90;;;;;;4971751;28;20279;-73
2021/01/19 00:04:05;;;;;;;32.00;12.80;;;7.30;99.90;;;;;;4959131;28;20237;-74
2021/01/19 00:06:31;;;;;;;37.67;12.57;;;7.30;99.90;;;;;;4971533;28;20202;-72
2021/01/19 00:08:59;;;;;;;29.52;11.25;;;7.40;99.90;;;;;;4968621;28;20206;-73
2021/01/19 00:11:25;;;;;;;26.58;9.88;;;7.40;99.90;;;;;;4973069;28;20665;-74
2021/01/19 00:13:51;;;;;;;26.70;8.95;;;7.40;99.90;;;;;;4976149;28;20228;-72
2021/01/19 00:16:18;;;;;;;30.88;8.75;;;7.40;99.90;;;;;;4984155;28;20201;-73
2021/01/19 00:18:44;;;;;;;27.27;8.38;;;7.40;99.90;;;;;;4974978;28;20220;-73
2021/01/19 00:21:10;;;;;;;30.08;7.80;;;7.40;99.90;;;;;;4975666;28;20205;-74
2021/01/19 00:23:38;;;;;;;23.02;6.95;;;7.40;99.90;;;;;;4974929;28;20639;-74
2021/01/19 00:26:08;;;;;;;19.50;5.88;;;7.40;99.90;;;;;;4975811;28;20201;-75
2021/01/19 00:28:35;;;;;;;19.58;5.68;;;7.40;99.90;;;;;;4977256;28;20205;-75
2021/01/19 00:31:05;;;;;;;17.52;6.38;;;7.40;99.90;;;;;;4976895;28;20218;-74
2021/01/19 00:33:32;;;;;;;17.13;6.05;;;7.40;99.90;;;;;;4973497;28;20245;-74
2021/01/19 00:35:58;;;;;;;22.45;5.88;;;7.40;99.90;;;;;;4980125;28;20268;-73
2021/01/19 00:38:26;;;;;;;21.77;6.47;;;7.40;99.90;;;;;;4980079;28;20572;-75
2021/01/19 00:40:52;;;;;;;23.80;6.57;;;7.40;99.90;;;;;;4976753;28;20213;-74
2021/01/19 00:43:19;;;;;;;18.13;5.53;;;7.40;99.90;;;;;;4975878;28;20687;-74
2021/01/19 00:45:46;;;;;;;21.45;5.63;;;7.40;99.90;;;;;;4959948;28;20671;-72
2021/01/19 00:48:12;;;;;;;18.15;5.18;;;7.40;99.90;;;;;;4960462;28;20716;-74
2021/01/19 00:50:39;;;;;;;19.50;5.40;;;7.40;99.90;;;;;;4961056;28;20208;-73
2021/01/19 00:53:06;;;;;;;15.82;5.18;;;7.40;99.90;;;;;;4978121;28;20564;-73
2021/01/19 00:55:32;;;;;;;19.38;5.60;;;7.40;99.90;;;;;;4975764;28;20248;-73
2021/01/19 00:57:59;;;;;;;20.77;5.07;;;7.40;99.90;;;;;;4960164;28;20224;-74
2021/01/19 01:00:30;;;;;;;15.70;5.70;;;7.40;99.90;;;;;;4974920;28;20241;-73
2021/01/19 01:02:56;;;;;;;25.02;5.80;;;7.30;99.90;;;;;;4974525;28;20190;-74
2021/01/19 01:05:22;;;;;;;17.50;4.97;;;7.30;99.90;;;;;;4974608;28;20201;-71
2021/01/19 01:07:49;;;;;;;17.95;5.65;;;7.20;99.90;;;;;;4978160;28;20213;-72
2021/01/19 01:10:16;;;;;;;23.98;5.85;;;7.20;99.90;;;;;;4973738;28;20213;-73
2021/01/19 01:12:44;;;;;;;20.02;5.80;;;7.10;99.90;;;;;;4975367;28;20236;-74
2021/01/19 01:15:12;;;;;;;20.38;6.25;;;7.00;99.90;;;;;;4973627;28;20759;-74
2021/01/19 01:17:40;;;;;;;25.08;5.53;;;6.90;99.90;;;;;;4957470;28;20202;-73
2021/01/19 01:20:08;;;;;;;17.30;6.00;;;6.80;99.90;;;;;;4974441;28;20272;-74
2021/01/19 01:22:39;;;;;;;19.33;5.78;;;6.80;99.90;;;;;;4977098;28;20244;-72
2021/01/19 01:25:07;;;;;;;21.10;5.93;;;6.70;99.90;;;;;;4953732;28;20663;-74
2021/01/19 01:27:33;;;;;;;17.55;6.22;;;6.60;99.90;;;;;;4974891;28;20206;-74
2021/01/19 01:29:59;;;;;;;19.35;5.80;;;6.60;99.90;;;;;;4974790;28;20202;-73
2021/01/19 01:32:26;;;;;;;27.90;6.40;;;6.50;99.90;;;;;;4971795;28;20246;-74
2021/01/19 01:34:53;;;;;;;20.17;6.40;;;6.50;99.90;;;;;;4972138;28;20688;-74
2021/01/19 01:37:19;;;;;;;28.90;6.38;;;6.50;99.90;;;;;;4971328;28;20201;-74
2021/01/19 01:39:46;;;;;;;19.10;6.15;;;6.40;99.90;;;;;;4975529;28;20202;-73
2021/01/19 01:42:20;;;;;;;20.67;6.13;;;6.40;99.90;;;;;;4971667;28;20198;-73
2021/01/19 01:44:46;;;;;;;19.38;6.72;;;6.40;99.90;;;;;;4954962;28;20217;-74
2021/01/19 01:47:19;;;;;;;21.23;6.90;;;6.30;99.90;;;;;;4972064;28;20281;-74
2021/01/19 01:49:46;;;;;;;26.27;7.20;;;6.30;99.90;;;;;;4973836;28;20201;-74
2021/01/19 01:52:13;;;;;;;22.02;6.88;;;6.30;99.90;;;;;;4954200;28;20234;-73
2021/01/19 01:54:40;;;;;;;23.45;6.82;;;6.30;99.90;;;;;;4971968;28;20214;-74
2021/01/19 01:57:06;;;;;;;29.13;6.85;;;6.30;99.90;;;;;;4959007;28;20212;-74
2021/01/19 01:59:33;;;;;;;24.65;7.15;;;6.20;99.90;;;;;;4969999;28;20285;-73
2021/01/19 02:02:08;;;;;;;25.48;7.63;;;6.20;99.90;;;;;;4974579;28;20237;-73
2021/01/19 02:04:34;;;;;;;20.63;6.88;;;6.20;99.90;;;;;;4970852;28;20288;-73
2021/01/19 02:07:03;;;;;;;23.45;7.20;;;6.20;99.90;;;;;;4971282;28;20612;-75
2021/01/19 02:09:35;;;;;;;27.83;7.70;;;6.10;99.90;;;;;;4976414;28;20217;-75
2021/01/19 02:12:05;;;;;;;24.45;7.65;;;6.20;99.90;;;;;;4975026;28;20236;-75
2021/01/19 02:14:36;;;;;;;32.40;8.23;;;6.10;99.90;;;;;;4961181;28;20217;-76
2021/01/19 02:17:12;;;;;;;21.60;7.55;;;6.10;99.90;;;;;;4951555;28;20574;-73
2021/01/19 02:20:14;;;;;;;25.35;7.90;;;6.10;99.90;;;;;;4974595;28;20205;-74
2021/01/19 02:23:07;;;;;;;26.67;8.55;;;6.10;99.90;;;;;;4949988;28;20741;-72
2021/01/19 02:25:54;;;;;;;20.85;8.70;;;6.10;99.90;;;;;;4966965;28;20678;-75
2021/01/19 02:28:25;;;;;;;21.35;8.65;;;6.10;99.90;;;;;;4976500;28;20200;-75
2021/01/19 02:31:08;;;;;;;22.50;9.13;;;6.10;99.90;;;;;;4973956;28;20216;-74
2021/01/19 02:33:43;;;;;;;23.10;9.60;;;6.10;99.90;;;;;;4975715;28;20241;-74
2021/01/19 02:36:19;;;;;;;22.42;8.98;;;6.10;99.90;;;;;;4971065;28;20205;-73
2021/01/19 02:38:56;;;;;;;24.20;9.25;;;6.00;99.90;;;;;;4981276;28;20209;-73
2021/01/19 02:41:23;;;;;;;32.03;9.95;;;6.10;99.90;;;;;;4974989;28;20194;-73
2021/01/19 02:43:56;;;;;;;27.65;10.55;;;6.10;99.90;;;;;;4970392;28;20587;-74
2021/01/19 02:46:25;;;;;;;24.27;10.65;;;6.10;99.90;;;;;;4952445;28;20670;-73
2021/01/19 02:48:52;;;;;;;22.42;10.55;;;6.10;99.90;;;;;;4968948;28;20214;-72
2021/01/19 02:51:20;;;;;;;21.45;10.40;;;6.00;99.90;;;;;;4973770;28;20206;-75
2021/01/19 02:53:49;;;;;;;22.00;10.45;;;6.00;99.90;;;;;;4974165;28;20625;-74
2021/01/19 02:56:24;;;;;;;25.38;11.57;;;6.00;99.90;;;;;;4974516;28;20214;-74
2021/01/19 02:59:02;;;;;;;21.83;11.40;;;6.00;99.90;;;;;;4972697;28;20206;-73
2021/01/19 03:01:35;;;;;;;20.38;11.45;;;6.00;99.90;;;;;;4967642;28;20664;-74
2021/01/19 03:04:04;;;;;;;27.63;11.68;;;6.00;99.90;;;;;;4951044;28;20245;-74
2021/01/19 03:06:32;;;;;;;24.75;11.70;;;6.00;99.90;;;;;;4969729;28;20206;-74
2021/01/19 03:08:59;;;;;;;23.77;12.68;;;6.00;99.90;;;;;;4968578;28;20583;-73
2021/01/19 03:11:27;;;;;;;24.27;12.13;;;5.90;99.90;;;;;;4969430;28;20201;-74
2021/01/19 03:13:53;;;;;;;26.45;12.77;;;5.90;99.90;;;;;;4969509;28;20214;-73
2021/01/19 03:16:22;;;;;;;31.95;12.77;;;5.90;99.90;;;;;;4973053;28;20572;-74
2021/01/19 03:18:49;;;;;;;19.58;11.77;;;5.90;99.90;;;;;;4954790;28;20205;-74
2021/01/19 03:21:17;;;;;;;27.17;12.63;;;5.90;99.90;;;;;;4974042;28;20264;-73
2021/01/19 03:23:43;;;;;;;21.70;12.63;;;5.90;99.90;;;;;;4954594;28;20210;-75
2021/01/19 03:26:10;;;;;;;29.65;13.45;;;5.90;99.90;;;;;;4968949;28;20210;-74
2021/01/19 03:28:37;;;;;;;29.42;13.50;;;5.90;99.90;;;;;;4967891;28;20596;-76
2021/01/19 03:31:04;;;;;;;20.35;12.55;;;5.90;99.90;;;;;;4969891;28;20583;-74
2021/01/19 03:33:31;;;;;;;31.63;13.57;;;5.90;99.90;;;;;;4969227;28;20225;-74
2021/01/19 03:35:57;;;;;;;24.83;13.65;;;5.90;99.90;;;;;;4972278;28;20202;-75
2021/01/19 03:38:25;;;;;;;25.60;13.85;;;5.90;99.90;;;;;;4968488;28;20579;-74
2021/01/19 03:40:51;;;;;;;25.70;14.48;;;5.90;99.90;;;;;;4967651;28;20312;-74
2021/01/19 03:43:18;;;;;;;23.88;14.80;;;5.90;99.90;;;;;;4970839;28;20202;-75
2021/01/19 03:45:44;;;;;;;25.10;15.27;;;5.90;99.90;;;;;;4953849;28;20583;-75
2021/01/19 03:48:11;;;;;;;29.45;17.20;;;5.90;99.90;;;;;;4972832;28;20209;-75
2021/01/19 03:50:37;;;;;;;28.33;16.63;;;6.00;99.90;;;;;;4973901;28;20612;-75
2021/01/19 03:53:04;;;;;;;29.13;16.75;;;6.00;99.90;;;;;;4972351;28;20587;-75
2021/01/19 03:55:31;;;;;;;29.35;16.50;;;6.00;99.90;;;;;;4968197;28;20209;-74
2021/01/19 03:57:58;;;;;;;30.65;16.17;;;6.00;99.90;;;;;;4968046;28;20665;-74
2021/01/19 04:00:25;;;;;;;28.98;15.85;;;6.00;99.90;;;;;;4971203;28;20693;-74
2021/01/19 04:02:51;;;;;;;30.23;16.08;;;6.00;99.90;;;;;;4969264;28;20594;-74
2021/01/19 04:05:17;;;;;;;29.30;15.70;;;6.10;99.90;;;;;;4977124;28;20613;-74
2021/01/19 04:07:44;;;;;;;32.33;15.55;;;6.00;99.90;;;;;;4975391;28;20217;-75
2021/01/19 04:10:12;;;;;;;30.13;15.00;;;6.00;99.90;;;;;;4975195;28;20209;-75
2021/01/19 04:12:40;;;;;;;24.25;14.82;;;6.00;99.90;;;;;;4956398;28;20226;-74
2021/01/19 04:15:07;;;;;;;25.55;15.98;;;6.00;99.90;;;;;;4968276;28;20209;-76
2021/01/19 04:17:34;;;;;;;25.13;16.15;;;6.10;99.90;;;;;;4968482;28;20667;-74
2021/01/19 04:20:00;;;;;;;28.77;16.63;;;6.00;99.90;;;;;;4973307;28;20502;-73
2021/01/19 04:22:27;;;;;;;28.55;16.58;;;6.00;99.90;;;;;;4951436;28;20257;-75
2021/01/19 04:24:53;;;;;;;25.83;16.92;;;6.00;99.90;;;;;;4967896;28;20194;-73
2021/01/19 04:27:20;;;;;;;27.77;17.95;;;6.00;99.90;;;;;;4967595;28;20214;-75
2021/01/19 04:29:47;;;;;;;29.48;17.70;;;6.00;99.90;;;;;;4967697;28;20264;-74
2021/01/19 04:32:14;;;;;;;26.88;17.88;;;6.00;99.90;;;;;;4967789;28;20221;-73
2021/01/19 04:34:41;;;;;;;32.90;17.95;;;6.00;99.90;;;;;;4973995;28;20211;-72
2021/01/19 04:37:07;;;;;;;29.88;18.58;;;6.00;99.90;;;;;;4967349;28;20562;-73
2021/01/19 04:39:34;;;;;;;28.45;17.95;;;6.00;99.90;;;;;;4969713;28;20292;-73
2021/01/19 04:42:00;;;;;;;35.30;17.75;;;6.00;99.90;;;;;;4967877;28;20194;-72
2021/01/19 04:44:27;;;;;;;29.08;17.48;;;6.00;99.90;;;;;;4969391;28;20209;-73
2021/01/19 04:46:55;;;;;;;26.80;17.52;;;6.10;99.90;;;;;;4975420;28;20209;-74
2021/01/19 04:49:21;;;;;;;29.83;17.67;;;6.10;99.90;;;;;;4963686;28;20214;-74
2021/01/19 04:51:48;;;;;;;27.08;15.82;;;6.10;99.90;;;;;;4970227;28;20208;-75
2021/01/19 04:54:17;;;;;;;25.63;16.17;;;6.10;99.90;;;;;;4967189;28;20286;-74
2021/01/19 04:56:50;;;;;;;26.58;16.88;;;6.10;99.90;;;;;;4973736;28;20292;-74
2021/01/19 04:59:22;;;;;;;26.05;16.08;;;6.10;99.90;;;;;;4971651;28;20248;-73
2021/01/19 05:02:35;;;;;;;26.95;15.07;;;6.10;99.90;;;;;;4971944;28;20714;-74
2021/01/19 05:05:25;;;;;;;24.70;15.50;;;6.10;99.90;;;;;;4967966;28;20197;-73
2021/01/19 05:08:31;;;;;;;22.30;15.10;;;6.20;99.90;;;;;;4966800;28;20217;-73
2021/01/19 05:11:00;;;;;;;25.70;14.90;;;6.20;99.90;;;;;;4919516;28;20202;-73
2021/01/19 05:13:49;;;;;;;28.25;15.63;;;6.20;99.90;;;;;;4983294;28;20665;-73
2021/01/19 05:16:18;;;;;;;22.42;14.52;;;6.20;99.90;;;;;;4972035;28;20201;-74
2021/01/19 05:18:45;;;;;;;24.95;14.68;;;6.20;99.90;;;;;;4977626;28;20205;-74
2021/01/19 05:21:12;;;;;;;25.17;15.48;;;6.20;99.90;;;;;;4977302;28;20260;-73
2021/01/19 05:23:39;;;;;;;21.65;14.68;;;6.30;99.90;;;;;;4970911;28;20202;-74
2021/01/19 05:26:07;;;;;;;21.60;15.27;;;6.30;99.90;;;;;;4982627;28;20224;-73
2021/01/19 05:28:36;;;;;;;25.17;14.93;;;6.40;99.90;;;;;;4958014;28;20206;-73
2021/01/19 05:31:05;;;;;;;23.27;15.15;;;6.30;99.90;;;;;;4976859;28;20204;-74
2021/01/19 05:33:32;;;;;;;26.88;15.25;;;6.40;99.90;;;;;;4976970;28;20226;-72
2021/01/19 05:36:09;;;;;;;23.05;15.05;;;6.40;99.90;;;;;;4963518;28;20217;-74
2021/01/19 05:38:46;;;;;;;24.52;16.00;;;6.40;99.90;;;;;;4975933;28;20220;-73
2021/01/19 05:41:26;;;;;;;24.70;14.88;;;6.40;99.90;;;;;;4968397;28;20206;-75
2021/01/19 05:43:53;;;;;;;26.27;16.60;;;6.40;99.90;;;;;;4968842;28;20340;-72
2021/01/19 05:46:26;;;;;;;25.38;14.98;;;6.40;99.90;;;;;;4970898;28;20218;-73
2021/01/19 05:48:59;;;;;;;26.48;16.33;;;6.40;99.90;;;;;;4969371;28;20229;-72
2021/01/19 05:51:29;;;;;;;25.27;16.30;;;6.50;99.90;;;;;;4970683;28;20308;-72
2021/01/19 05:53:57;;;;;;;25.35;16.15;;;6.50;99.90;;;;;;4971099;28;20259;-72
2021/01/19 05:56:24;;;;;;;28.30;16.10;;;6.50;99.90;;;;;;4972232;28;20206;-73
2021/01/19 05:58:50;;;;;;;26.38;15.38;;;6.50;99.90;;;;;;4968455;28;20566;-75
2021/01/19 06:01:31;;;;;;;25.67;15.70;;;6.50;99.90;;;;;;4950757;28;20226;-74
2021/01/19 06:03:59;;;;;;;27.38;15.00;;;6.50;99.90;;;;;;4949118;28;20231;-73
2021/01/19 06:06:27;;;;;;;23.80;14.30;;;6.50;99.90;;;;;;4956628;28;20210;-74
2021/01/19 06:08:59;;;;;;;27.00;14.70;;;6.60;99.90;;;;;;4950140;28;20711;-73
2021/01/19 06:11:26;;;;;;;27.67;14.05;;;6.60;99.90;;;;;;4956849;28;20297;-74
2021/01/19 06:13:53;;;;;;;26.05;14.30;;;6.60;99.90;;;;;;4951213;28;20218;-73
2021/01/19 06:16:24;;;;;;;23.70;13.15;;;6.60;99.90;;;;;;4956385;28;20245;-73
2021/01/19 06:18:51;;;;;;;22.58;13.57;;;6.60;99.90;;;;;;4950954;28;20203;-75
2021/01/19 06:21:29;;;;;;;25.60;13.32;;;6.60;99.90;;;;;;4949232;28;20561;-74
2021/01/19 06:23:56;;;;;;;21.25;12.38;;;6.60;99.90;;;;;;4948084;28;20206;-74
2021/01/19 06:26:22;;;;;;;17.45;12.75;;;6.70;99.90;;;;;;4951274;28;20211;-74
2021/01/19 06:28:48;;;;;;;19.38;12.48;;;6.70;99.90;;;;;;4954645;28;20214;-74
2021/01/19 06:31:19;;;;;;;23.95;12.65;;;6.70;99.90;;;;;;4955000;28;20947;-74
2021/01/19 06:33:48;;;;;;;22.80;13.07;;;6.70;99.90;;;;;;4953160;28;20847;-75
2021/01/19 06:36:16;;;;;;;20.50;12.48;;;6.70;99.90;;;;;;4950661;28;20714;-75
2021/01/19 06:38:48;;;;;;;21.17;13.30;;;6.70;99.90;;;;;;4948974;28;20221;-74
2021/01/19 06:41:17;;;;;;;23.20;13.38;;;6.70;99.90;;;;;;4950427;28;20206;-74
2021/01/19 06:43:50;;;;;;;21.92;13.77;;;6.80;99.90;;;;;;4955260;28;20213;-73
2021/01/19 06:46:19;;;;;;;21.30;12.98;;;6.80;99.90;;;;;;4953357;28;20218;-74
2021/01/19 06:48:47;;;;;;;21.27;13.32;;;6.80;99.90;;;;;;4950236;28;20210;-75
2021/01/19 06:51:14;;;;;;;21.70;12.07;;;6.80;99.90;;;;;;4958507;28;20206;-74
2021/01/19 06:53:45;;;;;;;14.63;10.93;;;6.80;99.90;;;;;;4949401;28;20245;-73
2021/01/19 06:56:14;;;;;;;18.33;9.68;;;6.90;99.90;;;;;;4949815;28;20206;-73
2021/01/19 06:58:49;;;;;;;14.80;7.07;;;6.90;99.90;;;;;;4952529;28;20206;-74
2021/01/19 07:01:17;;;;;;;12.25;5.82;;;7.00;99.90;;;;;;4959846;28;20225;-74
2021/01/19 07:03:44;;;;;;;17.85;5.95;;;7.10;99.90;;;;;;4965949;28;20210;-73
2021/01/19 07:06:13;;;;;;;13.15;5.38;;;7.10;99.90;;;;;;4971243;28;20297;-74
2021/01/19 07:09:28;;;;;;;18.40;5.78;;;7.20;99.90;;;;;;4970124;28;20206;-75
2021/01/19 07:12:08;;;;;;;15.93;5.15;;;7.30;99.90;;;;;;4973216;28;20313;-75
2021/01/19 07:14:42;;;;;;;19.65;5.63;;;7.30;99.90;;;;;;4969176;28;20283;-76
2021/01/19 07:17:16;;;;;;;19.73;5.55;;;7.40;99.90;;;;;;4950104;28;20229;-75
2021/01/19 07:19:48;;;;;;;20.30;4.95;;;7.40;99.90;;;;;;4965446;28;20664;-75
2021/01/19 07:22:44;;;;;;;19.80;4.30;;;7.40;99.90;;;;;;4963914;28;20206;-75
2021/01/19 07:25:11;;;;;;;40.85;5.40;;;7.50;99.90;;;;;;4970376;28;20572;-74
2021/01/19 07:27:39;;;;;;;25.52;4.45;;;7.50;99.90;;;;;;4964004;28;20209;-73
2021/01/19 07:30:08;;;;;;;19.13;4.47;;;7.50;99.90;;;;;;4970289;28;20681;-73
2021/01/19 07:32:37;;;;;;;31.80;4.88;;;7.60;99.90;;;;;;4968351;28;20698;-75
2021/01/19 07:35:05;;;;;;;15.95;4.43;;;7.60;99.90;;;;;;4973498;28;20201;-72
2021/01/19 07:37:33;;;;;;;28.20;4.78;;;7.60;99.90;;;;;;4969643;28;20264;-75
2021/01/19 07:40:00;;;;;;;21.15;4.53;;;7.70;99.90;;;;;;4953907;28;20216;-72
2021/01/19 07:42:26;;;;;;;22.65;5.15;;;7.60;99.90;;;;;;4968184;28;20588;-75
2021/01/19 07:44:58;;;;;;;29.75;6.03;;;7.70;99.90;;;;;;4969759;28;20284;-76
2021/01/19 07:47:35;;;;;;;33.53;5.20;;;7.70;99.90;;;;;;4956931;28;20260;-75
2021/01/19 07:50:03;;;;;;;31.33;5.13;;;7.70;99.90;;;;;;4968868;28;20720;-75
2021/01/19 07:52:36;;;;;;;32.70;5.45;;;7.80;99.90;;;;;;4949226;28;21434;-74
2021/01/19 07:55:16;;;;;;;26.40;4.75;;;7.80;99.90;;;;;;4970210;28;20205;-74
2021/01/19 07:57:44;;;;;;;36.13;4.85;;;7.80;99.90;;;;;;4970174;28;20209;-75
2021/01/19 08:00:14;;;;;;;27.80;4.80;;;7.80;99.90;;;;;;4952075;28;20226;-75
2021/01/19 08:02:40;;;;;;;34.75;5.10;;;7.90;99.90;;;;;;4966242;28;20220;-73
2021/01/19 08:05:08;;;;;;;28.08;4.30;;;7.80;99.90;;;;;;4967224;28;20268;-73
2021/01/19 08:07:39;;;;;;;25.40;4.90;;;7.90;99.90;;;;;;4950463;28;20246;-74
2021/01/19 08:10:21;;;;;;;30.13;4.47;;;7.90;99.90;;;;;;4967750;28;20198;-72
2021/01/19 08:12:50;;;;;;;28.73;5.20;;;7.90;99.90;;;;;;4956378;28;20883;-73
2021/01/19 08:15:23;;;;;;;33.47;4.95;;;7.90;99.90;;;;;;4970254;28;20237;-74
2021/01/19 08:17:52;;;;;;;36.47;4.95;;;8.00;99.90;;;;;;4968691;28;20201;-74
2021/01/19 08:20:31;;;;;;;36.92;5.25;;;8.10;99.90;;;;;;4956155;28;20249;-73
2021/01/19 08:23:09;;;;;;;38.30;5.38;;;8.10;99.90;;;;;;4968562;28;20304;-74
2021/01/19 08:25:35;;;;;;;37.80;6.15;;;8.10;99.90;;;;;;4968415;28;20288;-74
2021/01/19 08:28:02;;;;;;;41.78;5.72;;;8.20;99.90;;;;;;4968243;28;20228;-74
2021/01/19 08:30:31;;;;;;;41.95;6.18;;;8.20;99.90;;;;;;4968949;28;20210;-75
2021/01/19 08:32:59;;;;;;;59.17;6.05;;;8.20;99.90;;;;;;4968213;28;20884;-73
2021/01/19 08:35:28;;;;;;;60.25;7.22;;;8.20;99.90;;;;;;4971308;28;20772;-76
2021/01/19 08:37:56;;;;;;;50.55;5.93;;;8.30;99.90;;;;;;4967617;28;20260;-72
2021/01/19 08:40:25;;;;;;;47.00;6.72;;;8.30;99.90;;;;;;4970881;28;20605;-74
2021/01/19 08:42:52;;;;;;;59.17;6.85;;;8.30;99.90;;;;;;4969637;28;20198;-74
2021/01/19 08:45:26;;;;;;;63.60;6.75;;;8.40;99.90;;;;;;4972899;28;20214;-72
2021/01/19 08:47:57;;;;;;;57.83;7.15;;;8.40;99.90;;;;;;4972974;28;20224;-75
2021/01/19 08:50:24;;;;;;;70.97;7.25;;;8.40;99.90;;;;;;4968941;28;20201;-74
2021/01/19 08:52:51;;;;;;;74.18;7.40;;;8.50;99.90;;;;;;4971590;28;20666;-74
2021/01/19 08:55:19;;;;;;;66.47;6.20;;;8.50;99.90;;;;;;4969403;28;20224;-75
2021/01/19 08:57:50;;;;;;;75.05;7.70;;;8.50;99.90;;;;;;4969059;28;20659;-77
2021/01/19 09:00:26;;;;;;;62.45;6.80;;;8.50;99.90;;;;;;4971390;28;20234;-76
2021/01/19 09:02:55;;;;;;;77.05;7.50;;;8.60;99.90;;;;;;4971298;28;20225;-76
2021/01/19 09:05:29;;;;;;;69.57;6.88;;;8.60;99.90;;;;;;4972341;28;20213;-74
2021/01/19 09:07:56;;;;;;;50.95;6.35;;;8.70;99.90;;;;;;4970354;28;20244;-74
2021/01/19 09:10:25;;;;;;;69.47;6.45;;;8.70;99.90;;;;;;4970872;28;20210;-74
2021/01/19 09:12:52;;;;;;;64.13;5.57;;;8.80;99.90;;;;;;4972792;28;20222;-74
2021/01/19 09:15:19;;;;;;;76.47;6.28;;;8.90;99.90;;;;;;4971750;28;20206;-76
2021/01/19 09:17:55;;;;;;;64.88;6.32;;;8.90;99.90;;;;;;4970856;28;20201;-76
2021/01/19 09:20:22;;;;;;;61.60;6.50;;;8.90;99.90;;;;;;4973499;28;20264;-75
2021/01/19 09:22:48;;;;;;;60.85;6.22;;;9.00;99.90;;;;;;4971732;28;20572;-73
2021/01/19 09:25:18;;;;;;;55.35;6.05;;;9.00;99.90;;;;;;4970504;28;20222;-76
2021/01/19 09:27:45;;;;;;;62.85;6.07;;;9.10;99.90;;;;;;4959356;28;20671;-73
2021/01/19 09:30:14;;;;;;;63.28;6.05;;;9.10;99.90;;;;;;4971691;28;20205;-75
2021/01/19 09:32:42;;;;;;;58.20;5.63;;;9.20;99.90;;;;;;4954050;28;20230;-75
2021/01/19 09:35:11;;;;;;;58.22;5.88;;;9.20;99.90;;;;;;4954887;28;20202;-74
2021/01/19 09:37:39;;;;;;;66.10;6.70;;;9.30;99.90;;;;;;4969565;28;20336;-74
2021/01/19 09:40:06;;;;;;;68.57;7.47;;;9.30;99.90;;;;;;4952877;28;20218;-76
2021/01/19 09:42:33;;;;;;;63.10;6.55;;;9.30;99.90;;;;;;4970304;28;20202;-76
2021/01/19 09:45:05;;;;;;;76.72;7.82;;;9.30;99.90;;;;;;4971934;28;20276;-73
2021/01/19 09:47:31;;;;;;;73.60;8.02;;;9.30;99.90;;;;;;4972666;28;20201;-76
2021/01/19 09:49:59;;;;;;;81.07;6.78;;;9.30;99.90;;;;;;4969366;28;20276;-76
2021/01/19 09:52:31;;;;;;;56.13;6.53;;;9.30;99.90;;;;;;4970506;28;20278;-76
2021/01/19 09:55:08;;;;;;;61.08;6.55;;;9.30;99.90;;;;;;4970166;28;20289;-75
2021/01/19 09:57:34;;;;;;;52.22;6.40;;;9.40;99.90;;;;;;4976913;28;20609;-75
2021/01/19 10:00:01;;;;;;;58.88;6.60;;;9.40;99.90;;;;;;4971429;28;20209;-76
2021/01/19 10:02:29;;;;;;;52.55;5.70;;;9.40;99.90;;;;;;4971781;28;20209;-74
2021/01/19 10:04:59;;;;;;;56.35;6.43;;;9.40;99.90;;;;;;4979331;28;21121;-75
2021/01/19 10:07:28;;;;;;;74.43;6.65;;;9.50;99.90;;;;;;4981270;28;20291;-74
2021/01/19 10:10:06;;;;;;;65.80;6.93;;;9.50;99.90;;;;;;4958854;28;20693;-75
2021/01/19 10:12:33;;;;;;;80.72;7.20;;;9.50;99.90;;;;;;4977354;28;20213;-75
2021/01/19 10:14:59;;;;;;;67.45;6.97;;;9.50;99.90;;;;;;4971260;28;20271;-75
2021/01/19 10:17:30;;;;;;;68.40;7.30;;;9.50;99.90;;;;;;4970333;28;20539;-75
2021/01/19 10:20:08;;;;;;;84.10;7.47;;;9.50;99.90;;;;;;4976769;28;20209;-75
2021/01/19 10:22:37;;;;;;;69.28;7.43;;;9.50;99.90;;;;;;4970518;28;20201;-75
2021/01/19 10:25:06;;;;;;;90.78;8.23;;;9.50;99.90;;;;;;4971489;28;20201;-75
2021/01/19 10:27:38;;;;;;;52.50;5.82;;;9.50;99.90;;;;;;4970166;28;20236;-76
2021/01/19 10:30:06;;;;;;;57.38;7.38;;;9.50;99.90;;;;;;4969634;28;20221;-74
2021/01/19 10:32:45;;;;;;;50.97;7.03;;;9.60;99.90;;;;;;4970439;28;20225;-75
2021/01/19 10:35:14;;;;;;;67.47;7.78;;;9.60;99.90;;;;;;4968719;28;20206;-75
2021/01/19 10:37:51;;;;;;;65.70;7.70;;;9.60;99.90;;;;;;4967559;28;20218;-76
2021/01/19 10:40:19;;;;;;;71.68;7.70;;;9.60;99.90;;;;;;4954016;28;20623;-76
2021/01/19 10:42:45;;;;;;;77.65;7.55;;;9.60;99.90;;;;;;4970650;28;20209;-78
2021/01/19 10:45:21;;;;;;;74.60;7.15;;;9.60;99.90;;;;;;4953399;28;20221;-76
2021/01/19 10:47:48;;;;;;;49.53;6.05;;;9.60;99.90;;;;;;4976203;28;20700;-76
2021/01/19 10:50:16;;;;;;;55.10;5.72;;;9.70;99.90;;;;;;4951022;28;20218;-74
2021/01/19 10:52:51;;;;;;;53.33;5.05;;;9.70;99.90;;;;;;4970204;28;20228;-76
2021/01/19 10:55:17;;;;;;;42.65;4.55;;;9.70;99.90;;;;;;4969263;28;21037;-74
2021/01/19 10:57:44;;;;;;;43.25;4.55;;;9.70;99.90;;;;;;4960565;28;20230;-74
2021/01/19 11:00:12;;;;;;;36.00;4.22;;;9.70;99.90;;;;;;4967983;28;20225;-77
2021/01/19 11:02:38;;;;;;;32.30;2.92;;;9.80;99.90;;;;;;4972787;28;20206;-76
2021/01/19 11:05:06;;;;;;;41.40;3.17;;;9.80;99.90;;;;;;4969260;28;20217;-75
2021/01/19 11:07:32;;;;;;;34.85;3.25;;;9.80;99.90;;;;;;4970522;28;20745;-76
2021/01/19 11:09:59;;;;;;;18.60;3.08;;;9.80;99.90;;;;;;4974035;28;20201;-75
2021/01/19 11:12:25;;;;;;;23.35;2.90;;;9.80;99.90;;;;;;4970536;28;20205;-73
2021/01/19 11:14:52;;;;;;;24.90;2.78;;;9.80;99.90;;;;;;4967478;28;20213;-74
2021/01/19 11:17:18;;;;;;;20.38;2.38;;;9.80;99.90;;;;;;4968905;28;20214;-74
2021/01/19 11:19:45;;;;;;;31.15;2.67;;;9.80;99.90;;;;;;4968722;28;20206;-76
2021/01/19 11:22:11;;;;;;;28.30;2.80;;;9.80;99.90;;;;;;4973248;28;20221;-76
2021/01/19 11:24:37;;;;;;;26.60;2.90;;;9.80;99.90;;;;;;4967478;28;20202;-75
2021/01/19 11:27:04;;;;;;;21.48;3.10;;;9.80;99.90;;;;;;4967376;28;20244;-74
2021/01/19 11:29:30;;;;;;;28.83;2.78;;;9.80;99.90;;;;;;4968646;28;20311;-75
2021/01/19 11:31:58;;;;;;;21.27;3.03;;;9.80;99.90;;;;;;4969606;28;20615;-74
2021/01/19 11:34:24;;;;;;;24.45;3.55;;;9.80;99.90;;;;;;4967923;28;20229;-73
2021/01/19 11:36:50;;;;;;;30.75;3.47;;;9.80;99.90;;;;;;4967053;28;20206;-72
2021/01/19 11:39:17;;;;;;;27.17;3.70;;;9.80;99.90;;;;;;4969786;28;20205;-73
2021/01/19 11:41:43;;;;;;;27.30;3.33;;;9.70;99.90;;;;;;4970736;28;20220;-72
2021/01/19 11:44:11;;;;;;;28.05;4.10;;;9.70;99.90;;;;;;4970597;28;20212;-74
2021/01/19 11:46:38;;;;;;;41.95;4.93;;;9.70;99.90;;;;;;4971428;28;20213;-74
2021/01/19 11:49:07;;;;;;;57.25;6.65;;;9.70;99.90;;;;;;4977193;28;20256;-73
2021/01/19 11:51:35;;;;;;;78.85;8.05;;;9.70;99.90;;;;;;4969273;28;20213;-72
2021/01/19 11:54:03;;;;;;;79.65;8.20;;;9.70;99.90;;;;;;4967935;28;20229;-73
2021/01/19 11:56:34;;;;;;;87.15;8.40;;;9.70;99.90;;;;;;4970644;28;20198;-72
2021/01/19 11:59:01;;;;;;;89.28;8.00;;;9.70;99.90;;;;;;4969513;28;20595;-75
2021/01/19 12:01:27;;;;;;;87.38;9.00;;;9.60;99.90;;;;;;4956113;28;20237;-75
2021/01/19 12:03:53;;;;;;;87.45;8.30;;;9.60;99.90;;;;;;4970689;28;20204;-71
2021/01/19 12:06:21;;;;;;;64.53;8.20;;;9.60;99.90;;;;;;4981294;28;20197;-73
2021/01/19 12:08:49;;;;;;;82.32;7.95;;;9.60;99.90;;;;;;4973941;28;20206;-72
2021/01/19 12:11:16;;;;;;;70.88;8.13;;;9.60;99.90;;;;;;4981209;28;20212;-72
2021/01/19 12:13:42;;;;;;;62.10;7.95;;;9.60;99.90;;;;;;4973689;28;20221;-73
2021/01/19 12:16:10;;;;;;;65.10;7.95;;;9.60;99.90;;;;;;4973677;28;20205;-72
2021/01/19 12:18:37;;;;;;;73.03;7.95;;;9.60;99.90;;;;;;4974510;28;20197;-71
2021/01/19 12:21:05;;;;;;;61.88;7.95;;;9.60;99.90;;;;;;4967013;28;20208;-73
2021/01/19 12:23:32;;;;;;;71.45;7.95;;;9.70;99.90;;;;;;4968347;28;20264;-73
2021/01/19 12:25:59;;;;;;;69.15;7.40;;;9.70;99.90;;;;;;4981240;28;20624;-73
2021/01/19 12:28:26;;;;;;;75.20;8.63;;;9.70;99.90;;;;;;4970308;28;20280;-71
2021/01/19 12:30:54;;;;;;;77.57;8.35;;;9.70;99.90;;;;;;4968907;28;20555;-73
2021/01/19 12:33:20;;;;;;;59.20;6.97;;;9.70;99.90;;;;;;4969430;28;20584;-71
2021/01/19 12:35:47;;;;;;;69.07;8.20;;;9.70;99.90;;;;;;4974661;28;20229;-73
2021/01/19 12:38:14;;;;;;;64.55;7.13;;;9.70;99.90;;;;;;4968852;28;20615;-73
2021/01/19 12:40:41;;;;;;;71.07;7.05;;;9.70;99.90;;;;;;4950319;28;20255;-73
2021/01/19 12:43:08;;;;;;;74.47;7.28;;;9.70;99.90;;;;;;4971128;28;20202;-72
2021/01/19 12:45:35;;;;;;;66.75;7.03;;;9.70;99.90;;;;;;4968905;28;20210;-74
2021/01/19 12:48:02;;;;;;;71.22;8.38;;;9.70;99.90;;;;;;4969197;28;20194;-72
2021/01/19 12:50:28;;;;;;;62.78;7.53;;;9.70;99.90;;;;;;4951317;28;20210;-73
2021/01/19 12:52:55;;;;;;;85.80;8.40;;;9.70;99.90;;;;;;4969718;28;20225;-73
2021/01/19 12:55:22;;;;;;;75.38;7.82;;;9.70;99.90;;;;;;4956420;28;20605;-73